Nuiqsut Airport

About
Name: Nuiqsut Airport
Identifier:  NUI/PAQT
Serves:  Nuiqsut, Alaska
Owner:  North Slope Borough
Public/Private:  Public
Local Time:  22. Aug 20:52 AKDT
Description: Nuiqsut Airport is a public use airport located in Nuiqsut, a city in the North Slope Borough of the U.S. state of Alaska. It is owned by North Slope Borough.
Source: Wikipedia
Location
Runways
Identifier Length (m/ft) Surface
4/22 4,343/4,343 Gravel
Flights per Day
0 flights
Distance: 144km (89mi)
Punctuality
0% (0 flights per day delayed)
Delay Average: 24 minutes
Current Weather
 6 C (Humidity: 81%)
  8kt (14km/h / 9mph) from 270°
  Scattered clouds at 2,400 feet (731 meter)
  Scattered clouds at 4,400 feet (1,341 meter)
  Overcast at 7,000 feet (2,133 meter)
  16km (10 mi.)
 METAR PAQT 230353Z AUTO 27008KT 10SM SCT024 SCT044 OVC070 06/03 A2967 RMK AO2 RAB09E23 SLP048 P0000 T00610028 TSNO

Current Flights

Departures
Number Departure To Airline
Arrivals
Number Arrival From Airline

Current Delays

Departures
N/A
Arrivals
N/A

Destinations

Top Destinations
Airport Flights
per week
Seats
per week
  Deadhorse (SCC) 1 - 0 0

Airlines & Planes

Top Airlines
Airline Flights
per Day
Seats
per Day
Lynden Air Cargo 0 -
Top Plane Types
Model Flights Seats
Lockheed C-130 0.0/day - 0